Time;durP1;ratioP1;P1;durP2;ratioP2;P2;SDS_P1;SDS_P2;PMS_P1;PMS_P2;Temp;Humidity;BMP_temperature;BMP_pressure;BME280_temperature;BME280_humidity;BME280_pressure;Samples;Min_cycle;Max_cycle;Signal;HPM_P1;HPM_P2
2022/12/14 00:01:14;;;;;;;;;;;0.20;99.90;;;;;;7340913;19;109233;-71
2022/12/14 00:03:41;;;;;;;;;;;0.20;99.90;;;;;;7338004;19;112507;-71
2022/12/14 00:06:12;;;;;;;;;;;0.20;99.90;;;;;;7339787;19;108864;-71
2022/12/14 00:08:39;;;;;;;;;;;0.20;99.90;;;;;;7346535;19;109050;-71
2022/12/14 00:11:07;;;;;;;;;;;0.30;99.90;;;;;;7340214;19;108481;-71
2022/12/14 00:13:35;;;;;;;;;;;0.30;99.90;;;;;;7339752;19;108687;-71
2022/12/14 00:16:06;;;;;;;;;;;0.30;99.90;;;;;;7340059;19;109211;-71
2022/12/14 00:18:33;;;;;;;;;;;0.30;99.90;;;;;;7338703;19;109424;-71
2022/12/14 00:21:08;;;;;;;;;;;0.30;99.90;;;;;;7340960;19;109129;-71
2022/12/14 00:23:36;;;;;;;;;;;0.30;99.90;;;;;;7335951;19;110141;-71
2022/12/14 00:26:08;;;;;;;;;;;0.30;99.90;;;;;;7339939;19;108372;-71
2022/12/14 00:28:35;;;;;;;;;;;0.20;99.90;;;;;;7345202;19;109167;-71
2022/12/14 00:31:02;;;;;;;;;;;0.20;99.90;;;;;;7339129;19;108562;-71
2022/12/14 00:33:29;;;;;;;;;;;0.20;99.90;;;;;;7336490;19;108718;-71
2022/12/14 00:35:56;;;;;;;;;;;0.20;99.90;;;;;;7338297;19;109513;-71
2022/12/14 00:38:23;;;;;;;;;;;0.20;99.90;;;;;;7336846;19;109587;-71
2022/12/14 00:40:51;;;;;;;;;;;0.20;99.90;;;;;;7340020;19;109239;-71
2022/12/14 00:43:18;;;;;;;;;;;0.20;99.90;;;;;;7336267;19;110601;-71
2022/12/14 00:45:44;;;;;;;;;;;0.10;99.90;;;;;;7339621;19;108334;-71
2022/12/14 00:48:12;;;;;;;;;;;0.10;99.90;;;;;;7339798;19;109025;-71
2022/12/14 00:50:39;;;;;;;;;;;0.10;99.90;;;;;;7345021;19;110385;-71
2022/12/14 00:53:06;;;;;;;;;;;0.10;99.90;;;;;;7337952;19;108372;-71
2022/12/14 00:55:40;;;;;;;;;;;0.10;99.90;;;;;;7332939;19;109249;-71
2022/12/14 00:58:07;;;;;;;;;;;0.20;99.90;;;;;;7338157;19;109770;-71
2022/12/14 01:00:34;;;;;;;;;;;0.20;99.90;;;;;;7338187;19;109761;-71
2022/12/14 01:03:01;;;;;;;;;;;0.10;99.90;;;;;;7335035;19;110257;-71
2022/12/14 01:05:28;;;;;;;;;;;0.20;99.90;;;;;;7337730;19;110469;-72
2022/12/14 01:07:55;;;;;;;;;;;0.20;99.90;;;;;;7336570;19;108594;-71
2022/12/14 01:10:22;;;;;;;;;;;0.20;99.90;;;;;;7336817;19;110309;-71
2022/12/14 01:12:49;;;;;;;;;;;0.20;99.90;;;;;;7344376;19;108718;-71
2022/12/14 01:15:16;;;;;;;;;;;0.20;99.90;;;;;;7335245;19;110542;-71
2022/12/14 01:17:43;;;;;;;;;;;0.20;99.90;;;;;;7336409;19;108817;-71
2022/12/14 01:20:10;;;;;;;;;;;0.20;99.90;;;;;;7337862;19;109270;-71
2022/12/14 01:22:37;;;;;;;;;;;0.10;99.90;;;;;;7338075;19;110291;-71
2022/12/14 01:25:04;;;;;;;;;;;0.10;99.90;;;;;;7337935;19;110062;-71
2022/12/14 01:27:31;;;;;;;;;;;0.10;99.90;;;;;;7338182;19;109169;-71
2022/12/14 01:29:58;;;;;;;;;;;0.10;99.90;;;;;;7337287;19;112119;-71
2022/12/14 01:32:25;;;;;;;;;;;0.10;99.90;;;;;;7337174;19;108889;-71
2022/12/14 01:34:51;;;;;;;;;;;0.10;99.90;;;;;;7343272;19;108388;-71
2022/12/14 01:37:18;;;;;;;;;;;0.10;99.90;;;;;;7337698;19;108882;-71
2022/12/14 01:39:45;;;;;;;;;;;0.10;99.90;;;;;;7337231;19;108529;-71
2022/12/14 01:42:13;;;;;;;;;;;0.10;99.90;;;;;;7334419;19;109301;-71
2022/12/14 01:44:43;;;;;;;;;;;0.10;99.90;;;;;;7336108;19;108611;-71
2022/12/14 01:47:27;;;;;;;;;;;0.10;99.90;;;;;;7335841;19;108547;-71
2022/12/14 01:50:01;;;;;;;;;;;0.10;99.90;;;;;;7333825;19;113656;-71
2022/12/14 01:52:27;;;;;;;;;;;0.10;99.90;;;;;;7334424;19;110395;-71
2022/12/14 01:54:59;;;;;;;;;;;0.00;99.90;;;;;;7335956;19;110403;-71
2022/12/14 01:57:29;;;;;;;;;;;0.00;99.90;;;;;;7339907;19;109245;-71
2022/12/14 01:59:56;;;;;;;;;;;0.00;99.90;;;;;;7337893;19;109170;-71
2022/12/14 02:02:31;;;;;;;;;;;-0.10;99.90;;;;;;7333536;19;109189;-71
2022/12/14 02:04:59;;;;;;;;;;;-0.20;99.90;;;;;;7336515;19;114566;-71
2022/12/14 02:07:27;;;;;;;;;;;-0.20;99.90;;;;;;7340494;19;109236;-71
2022/12/14 02:09:56;;;;;;;;;;;-0.20;99.90;;;;;;7343970;19;110128;-70
2022/12/14 02:12:48;;;;;;;;;;;-0.20;99.90;;;;;;7342927;19;108888;-70
2022/12/14 02:15:15;;;;;;;;;;;-0.10;99.90;;;;;;7341747;19;109472;-72
2022/12/14 02:17:43;;;;;;;;;;;-0.10;99.90;;;;;;7343860;19;111886;-72
2022/12/14 02:20:12;;;;;;;;;;;-0.10;99.90;;;;;;7346476;19;109478;-72
2022/12/14 02:22:59;;;;;;;;;;;-0.10;99.90;;;;;;7343901;19;110689;-72
2022/12/14 02:25:46;;;;;;;;;;;-0.10;99.90;;;;;;7341854;19;108520;-69
2022/12/14 02:28:30;;;;;;;;;;;-0.10;99.90;;;;;;7340821;19;108432;-72
2022/12/14 02:31:04;;;;;;;;;;;-0.20;99.90;;;;;;7341246;19;109170;-72
2022/12/14 02:33:49;;;;;;;;;;;-0.10;99.90;;;;;;7341203;19;109804;-73
2022/12/14 02:36:31;;;;;;;;;;;-0.20;99.90;;;;;;7341443;19;109425;-72
2022/12/14 02:39:10;;;;;;;;;;;-0.30;99.90;;;;;;7343024;19;112901;-72
2022/12/14 02:41:44;;;;;;;;;;;-0.40;99.90;;;;;;7347812;19;108452;-72
2022/12/14 02:44:29;;;;;;;;;;;-0.60;99.90;;;;;;7340103;19;109746;-72
2022/12/14 02:46:58;;;;;;;;;;;-0.60;99.90;;;;;;7344649;19;108179;-72
2022/12/14 02:49:44;;;;;;;;;;;-0.70;99.90;;;;;;7339891;19;108769;-72
2022/12/14 02:52:17;;;;;;;;;;;-0.80;99.90;;;;;;7340801;19;110408;-72
2022/12/14 02:54:56;;;;;;;;;;;-0.80;99.90;;;;;;7340710;19;108509;-72
2022/12/14 02:57:28;;;;;;;;;;;-0.80;99.90;;;;;;7341838;19;109417;-72
2022/12/14 02:59:56;;;;;;;;;;;-0.70;99.90;;;;;;7341651;19;110640;-72
2022/12/14 03:02:24;;;;;;;;;;;-0.70;99.90;;;;;;7339854;19;108741;-72
2022/12/14 03:04:51;;;;;;;;;;;-0.70;99.90;;;;;;7346705;19;110759;-72
2022/12/14 03:07:35;;;;;;;;;;;-0.70;99.90;;;;;;7339888;19;108843;-72
2022/12/14 03:10:08;;;;;;;;;;;-0.80;99.90;;;;;;7341981;19;109681;-72
2022/12/14 03:12:36;;;;;;;;;;;-0.70;99.90;;;;;;7341095;19;110699;-72
2022/12/14 03:15:04;;;;;;;;;;;-0.70;99.90;;;;;;7340639;19;108470;-72
2022/12/14 03:17:31;;;;;;;;;;;-0.60;99.90;;;;;;7338817;19;109596;-72
2022/12/14 03:20:04;;;;;;;;;;;-0.80;99.90;;;;;;7341075;19;110442;-72
2022/12/14 03:22:35;;;;;;;;;;;-0.80;99.90;;;;;;7341571;19;109189;-72
2022/12/14 03:25:07;;;;;;;;;;;-0.80;99.90;;;;;;7340125;19;109479;-72
2022/12/14 03:27:37;;;;;;;;;;;-0.70;99.90;;;;;;7346684;19;109858;-72
2022/12/14 03:30:22;;;;;;;;;;;-0.70;99.90;;;;;;7341144;19;108293;-72
2022/12/14 03:33:12;;;;;;;;;;;-0.80;99.90;;;;;;7339024;19;112269;-72
2022/12/14 03:35:45;;;;;;;;;;;-0.80;99.90;;;;;;7341963;19;108456;-72
2022/12/14 03:38:16;;;;;;;;;;;-0.80;99.90;;;;;;7340707;19;109025;-72
2022/12/14 03:40:49;;;;;;;;;;;-0.80;99.90;;;;;;7338175;19;109320;-72
2022/12/14 03:43:23;;;;;;;;;;;-0.80;99.90;;;;;;7339925;19;108831;-72
2022/12/14 03:45:56;;;;;;;;;;;-0.80;99.90;;;;;;7339024;19;109167;-72
2022/12/14 03:48:41;;;;;;;;;;;-0.80;99.90;;;;;;7339495;19;109111;-72
2022/12/14 03:51:11;;;;;;;;;;;-0.80;99.90;;;;;;7344251;19;108746;-72
2022/12/14 03:53:38;;;;;;;;;;;-0.90;99.90;;;;;;7341128;19;109726;-72
2022/12/14 03:56:11;;;;;;;;;;;-1.00;99.90;;;;;;7339210;19;108316;-72
2022/12/14 03:58:38;;;;;;;;;;;-0.90;99.90;;;;;;7337288;19;111141;-72
2022/12/14 04:01:23;;;;;;;;;;;-0.90;99.90;;;;;;7333804;19;110494;-70
2022/12/14 04:03:58;;;;;;;;;;;-0.90;99.90;;;;;;7339464;19;108445;-70
2022/12/14 04:06:40;;;;;;;;;;;-0.80;99.90;;;;;;7339676;19;109433;-70
2022/12/14 04:09:26;;;;;;;;;;;-0.70;99.90;;;;;;7337384;19;109112;-70
2022/12/14 04:20:47;;;;;;;;;;;-0.40;99.90;;;;;;7336025;19;109450;-70
2022/12/14 04:26:03;;;;;;;;;;;-0.40;99.90;;;;;;7334518;19;111221;-71
2022/12/14 04:26:07;;;;;;;;;;;-0.30;99.90;;;;;;7337008;19;108707;-70
2022/12/14 04:31:27;;;;;;;;;;;-0.40;99.90;;;;;;7333191;19;113068;-70
2022/12/14 04:33:55;;;;;;;;;;;-0.50;99.90;;;;;;7334938;19;109508;-71
2022/12/14 04:36:31;;;;;;;;;;;-0.60;99.90;;;;;;7339538;19;109452;-71
2022/12/14 04:39:10;;;;;;;;;;;-0.60;99.90;;;;;;7335537;19;109906;-70
2022/12/14 04:41:40;;;;;;;;;;;-0.60;99.90;;;;;;7335689;19;109248;-70
2022/12/14 04:44:13;;;;;;;;;;;-0.70;99.90;;;;;;7334659;19;111138;-70
2022/12/14 04:46:40;;;;;;;;;;;-0.70;99.90;;;;;;7335484;19;110200;-71
2022/12/14 04:49:27;;;;;;;;;;;-0.70;99.90;;;;;;7333430;19;109299;-71
2022/12/14 04:51:55;;;;;;;;;;;-0.70;99.90;;;;;;7334492;19;111465;-70
2022/12/14 04:54:59;;;;;;;;;;;-0.70;99.90;;;;;;7336657;19;108913;-70
2022/12/14 04:57:45;;;;;;;;;;;-0.70;99.90;;;;;;7334779;19;111115;-71
2022/12/14 05:00:12;;;;;;;;;;;-0.70;99.90;;;;;;7342059;19;110942;-70
2022/12/14 05:02:39;;;;;;;;;;;-0.60;99.90;;;;;;7338246;19;108705;-70
2022/12/14 05:05:09;;;;;;;;;;;-0.60;99.90;;;;;;7337472;19;110414;-70
2022/12/14 05:07:58;;;;;;;;;;;-0.60;99.90;;;;;;7339760;19;109456;-71
2022/12/14 05:10:46;;;;;;;;;;;-0.60;99.90;;;;;;7337108;19;109149;-70
2022/12/14 05:13:17;;;;;;;;;;;-0.60;99.90;;;;;;7336808;19;111078;-70
2022/12/14 05:15:47;;;;;;;;;;;-0.60;99.90;;;;;;7337561;19;109900;-71
2022/12/14 05:18:13;;;;;;;;;;;-0.60;99.90;;;;;;7337876;19;109434;-71
2022/12/14 05:20:41;;;;;;;;;;;-0.60;99.90;;;;;;7338642;19;111111;-70
2022/12/14 05:23:07;;;;;;;;;;;-0.60;99.90;;;;;;7344395;19;109438;-70
2022/12/14 05:25:34;;;;;;;;;;;-0.60;99.90;;;;;;7337786;19;109619;-70
2022/12/14 05:28:01;;;;;;;;;;;-0.60;99.90;;;;;;7337572;19;108915;-70
2022/12/14 05:30:28;;;;;;;;;;;-0.60;99.90;;;;;;7336111;19;109763;-70
2022/12/14 05:32:56;;;;;;;;;;;-0.50;99.90;;;;;;7337019;19;110607;-70
2022/12/14 05:35:23;;;;;;;;;;;-0.50;99.90;;;;;;7337301;19;108421;-70
2022/12/14 05:37:50;;;;;;;;;;;-0.40;99.90;;;;;;7338103;19;109660;-70
2022/12/14 05:40:17;;;;;;;;;;;-0.40;99.90;;;;;;7336031;19;109944;-70
2022/12/14 05:42:43;;;;;;;;;;;-0.30;99.90;;;;;;7344637;19;109853;-70
2022/12/14 05:45:16;;;;;;;;;;;-0.30;99.90;;;;;;7348534;19;109134;-71
2022/12/14 05:47:44;;;;;;;;;;;-0.40;99.90;;;;;;7346452;19;112968;-70
2022/12/14 05:50:11;;;;;;;;;;;-0.30;99.90;;;;;;7341335;19;109548;-70
2022/12/14 05:52:37;;;;;;;;;;;-0.40;99.90;;;;;;7344265;19;110363;-70
2022/12/14 05:55:05;;;;;;;;;;;-0.30;99.90;;;;;;7344689;19;109076;-71
2022/12/14 05:57:32;;;;;;;;;;;-0.30;99.90;;;;;;7342614;19;108423;-70
2022/12/14 05:59:59;;;;;;;;;;;-0.30;99.90;;;;;;7343345;19;110449;-70
2022/12/14 06:02:26;;;;;;;;;;;-0.30;99.90;;;;;;7343675;19;108969;-70
2022/12/14 06:04:53;;;;;;;;;;;-0.40;99.90;;;;;;7343745;19;109135;-70
2022/12/14 06:07:20;;;;;;;;;;;-0.40;99.90;;;;;;7347888;19;109426;-70
2022/12/14 06:09:53;;;;;;;;;;;-0.40;99.90;;;;;;7344788;19;109021;-70
2022/12/14 06:12:20;;;;;;;;;;;-0.40;99.90;;;;;;7341061;19;110087;-71
2022/12/14 06:14:47;;;;;;;;;;;-0.40;99.90;;;;;;7343662;19;108827;-73
2022/12/14 06:17:13;;;;;;;;;;;-0.40;99.90;;;;;;7342610;19;109026;-77
2022/12/14 06:19:41;;;;;;;;;;;-0.40;99.90;;;;;;7343366;19;110443;-76
2022/12/14 06:22:15;;;;;;;;;;;-0.40;99.90;;;;;;7339868;19;108356;-76
2022/12/14 06:24:42;;;;;;;;;;;-0.40;99.90;;;;;;7344286;19;110112;-75
2022/12/14 06:27:09;;;;;;;;;;;-0.40;99.90;;;;;;7341620;19;110182;-73
2022/12/14 06:29:36;;;;;;;;;;;-0.40;99.90;;;;;;7349159;19;108793;-75
2022/12/14 06:32:03;;;;;;;;;;;-0.40;99.90;;;;;;7340990;19;110472;-74
2022/12/14 06:34:30;;;;;;;;;;;-0.40;99.90;;;;;;7343049;19;110275;-72
2022/12/14 06:37:05;;;;;;;;;;;-0.50;99.90;;;;;;7341960;19;108294;-70
2022/12/14 06:39:32;;;;;;;;;;;-0.50;99.90;;;;;;7340778;19;110168;-71
2022/12/14 06:41:58;;;;;;;;;;;-0.50;99.90;;;;;;7341742;19;109642;-71
2022/12/14 06:44:25;;;;;;;;;;;-0.50;99.90;;;;;;7341604;19;109272;-72
2022/12/14 06:46:52;;;;;;;;;;;-0.50;99.90;;;;;;7340729;19;109186;-70
2022/12/14 06:49:19;;;;;;;;;;;-0.50;99.90;;;;;;7346570;19;108512;-70
2022/12/14 06:51:47;;;;;;;;;;;-0.50;99.90;;;;;;7339628;19;109953;-71
2022/12/14 06:54:14;;;;;;;;;;;-0.50;99.90;;;;;;7345129;19;108932;-71
2022/12/14 06:56:42;;;;;;;;;;;-0.50;99.90;;;;;;7344118;19;109169;-70
2022/12/14 06:59:09;;;;;;;;;;;-0.50;99.90;;;;;;7339865;19;109126;-71
2022/12/14 07:01:37;;;;;;;;;;;-0.50;99.90;;;;;;7341867;19;108986;-70
2022/12/14 07:04:04;;;;;;;;;;;-0.50;99.90;;;;;;7341953;19;109664;-70
2022/12/14 07:06:34;;;;;;;;;;;-0.50;99.90;;;;;;7338737;19;110413;-72
2022/12/14 07:09:01;;;;;;;;;;;-0.50;99.90;;;;;;7340153;19;109312;-71
2022/12/14 07:11:29;;;;;;;;;;;-0.50;99.90;;;;;;7344753;19;109519;-72
2022/12/14 07:13:59;;;;;;;;;;;-0.50;99.90;;;;;;7341793;19;109725;-71
2022/12/14 07:16:27;;;;;;;;;;;-0.60;99.90;;;;;;7337624;19;108635;-72
2022/12/14 07:18:54;;;;;;;;;;;-0.60;99.90;;;;;;7339774;19;110531;-71
2022/12/14 07:21:22;;;;;;;;;;;-0.60;99.90;;;;;;7340443;19;108819;-75
2022/12/14 07:23:51;;;;;;;;;;;-0.70;99.90;;;;;;7339852;19;109354;-72
2022/12/14 07:26:22;;;;;;;;;;;-0.70;99.90;;;;;;7339464;19;110557;-70
2022/12/14 07:28:49;;;;;;;;;;;-0.70;99.90;;;;;;7339842;19;108552;-75
2022/12/14 07:31:17;;;;;;;;;;;-0.70;99.90;;;;;;7339260;19;109308;-70
2022/12/14 07:33:44;;;;;;;;;;;-0.70;99.90;;;;;;7346238;19;110088;-71
2022/12/14 07:36:15;;;;;;;;;;;-0.70;99.90;;;;;;7340061;19;109573;-71
2022/12/14 07:38:43;;;;;;;;;;;-0.80;99.90;;;;;;7340360;19;110522;-70
2022/12/14 07:41:15;;;;;;;;;;;-0.80;99.90;;;;;;7341307;19;108606;-71
2022/12/14 07:43:48;;;;;;;;;;;-0.80;99.90;;;;;;7339633;19;109588;-77
2022/12/14 07:46:20;;;;;;;;;;;-0.80;99.90;;;;;;7338267;19;129579;-75
2022/12/14 07:48:48;;;;;;;;;;;-0.80;99.90;;;;;;7339530;19;109038;-79
2022/12/14 07:51:16;;;;;;;;;;;-0.70;99.90;;;;;;7337408;19;108963;-80
2022/12/14 07:53:43;;;;;;;;;;;-0.70;99.90;;;;;;7339280;19;110307;-80
2022/12/14 07:56:11;;;;;;;;;;;-0.70;99.90;;;;;;7342806;19;108886;-80
2022/12/14 07:58:38;;;;;;;;;;;-0.70;99.90;;;;;;7340090;19;112012;-73
2022/12/14 08:01:09;;;;;;;;;;;-0.70;99.90;;;;;;7339307;19;108745;-72
2022/12/14 08:03:36;;;;;;;;;;;-0.70;99.90;;;;;;7337856;19;109783;-72
2022/12/14 08:06:04;;;;;;;;;;;-0.60;99.90;;;;;;7338500;19;110383;-73
2022/12/14 08:08:31;;;;;;;;;;;-0.60;99.90;;;;;;7339525;19;108662;-71
2022/12/14 08:10:59;;;;;;;;;;;-0.60;99.90;;;;;;7339382;19;110912;-72
2022/12/14 08:13:26;;;;;;;;;;;-0.70;99.90;;;;;;7339526;19;110283;-71
2022/12/14 08:15:53;;;;;;;;;;;-0.70;99.90;;;;;;7341432;19;113282;-71
2022/12/14 08:18:20;;;;;;;;;;;-0.70;99.90;;;;;;7343495;19;108702;-71
2022/12/14 08:20:48;;;;;;;;;;;-0.70;99.90;;;;;;7339704;19;109920;-70
2022/12/14 08:23:19;;;;;;;;;;;-0.60;99.90;;;;;;7339495;19;109391;-70
2022/12/14 08:25:51;;;;;;;;;;;-0.60;99.90;;;;;;7336367;19;110298;-70
2022/12/14 08:28:18;;;;;;;;;;;-0.70;99.90;;;;;;7335661;19;108794;-70
2022/12/14 08:30:45;;;;;;;;;;;-0.70;99.90;;;;;;7334090;19;109011;-70
2022/12/14 08:33:12;;;;;;;;;;;-0.70;99.90;;;;;;7335514;19;112517;-71
2022/12/14 08:35:39;;;;;;;;;;;-0.70;99.90;;;;;;7334876;19;109896;-72
2022/12/14 08:38:07;;;;;;;;;;;-0.70;99.90;;;;;;7332779;19;109510;-70
2022/12/14 08:40:34;;;;;;;;;;;-0.70;99.90;;;;;;7337530;19;111601;-70
2022/12/14 08:43:01;;;;;;;;;;;-0.70;99.90;;;;;;7336810;19;110173;-71
2022/12/14 08:45:28;;;;;;;;;;;-0.70;99.90;;;;;;7337242;19;110780;-71
2022/12/14 08:47:55;;;;;;;;;;;-0.80;99.90;;;;;;7337684;19;109036;-70
2022/12/14 08:50:22;;;;;;;;;;;-0.80;99.90;;;;;;7337614;19;109287;-70
2022/12/14 08:52:49;;;;;;;;;;;-0.70;99.90;;;;;;7339921;19;110245;-70
2022/12/14 08:55:16;;;;;;;;;;;-0.60;99.90;;;;;;7337633;19;109113;-71
2022/12/14 08:57:49;;;;;;;;;;;-0.60;99.90;;;;;;7339336;19;109094;-70
2022/12/14 09:00:17;;;;;;;;;;;-0.60;99.90;;;;;;7343971;19;110122;-70
2022/12/14 09:02:47;;;;;;;;;;;-0.60;99.90;;;;;;7338149;19;108808;-70
2022/12/14 09:05:15;;;;;;;;;;;-0.60;99.90;;;;;;7338100;19;110234;-71
2022/12/14 09:07:42;;;;;;;;;;;-0.60;99.90;;;;;;7338302;19;108421;-70
2022/12/14 09:10:09;;;;;;;;;;;-0.70;99.90;;;;;;7334655;19;110387;-71
2022/12/14 09:12:36;;;;;;;;;;;-0.60;99.90;;;;;;7332578;19;110636;-73
2022/12/14 09:15:04;;;;;;;;;;;-0.60;99.90;;;;;;7335050;19;108656;-71
2022/12/14 09:17:31;;;;;;;;;;;-0.70;99.90;;;;;;7343123;19;109408;-72
2022/12/14 09:19:58;;;;;;;;;;;-0.60;99.90;;;;;;7346173;19;111014;-71
2022/12/14 09:22:25;;;;;;;;;;;-0.60;99.90;;;;;;7350126;19;109894;-71
2022/12/14 09:24:52;;;;;;;;;;;-0.60;99.90;;;;;;7340931;19;110010;-71
2022/12/14 09:27:21;;;;;;;;;;;-0.60;99.90;;;;;;7343769;19;109374;-71
2022/12/14 09:29:48;;;;;;;;;;;-0.70;99.90;;;;;;7345243;19;109093;-71
2022/12/14 09:32:15;;;;;;;;;;;-0.70;99.90;;;;;;7343826;19;110831;-71
2022/12/14 09:34:42;;;;;;;;;;;-0.70;99.90;;;;;;7344895;19;108542;-71
2022/12/14 09:37:09;;;;;;;;;;;-0.70;99.90;;;;;;7344411;19;108364;-71
2022/12/14 09:39:36;;;;;;;;;;;-0.70;99.90;;;;;;7346774;19;110466;-71
2022/12/14 09:42:06;;;;;;;;;;;-0.80;99.90;;;;;;7345931;19;108534;-71
2022/12/14 09:44:42;;;;;;;;;;;-0.80;99.90;;;;;;7348095;19;108641;-71
2022/12/14 09:47:28;;;;;;;;;;;-0.80;99.90;;;;;;7346031;19;108794;-72
2022/12/14 09:49:54;;;;;;;;;;;-0.80;99.90;;;;;;7344253;19;109163;-70
2022/12/14 09:52:41;;;;;;;;;;;-0.70;99.90;;;;;;7343074;19;108989;-71
2022/12/14 09:55:16;;;;;;;;;;;-0.70;99.90;;;;;;7343603;19;108873;-71
2022/12/14 09:57:44;;;;;;;;;;;-0.70;99.90;;;;;;7346043;19;109509;-71
2022/12/14 10:00:17;;;;;;;;;;;-0.70;99.90;;;;;;7342605;19;110377;-71
2022/12/14 10:03:02;;;;;;;;;;;-0.60;99.90;;;;;;7344396;19;109339;-71
2022/12/14 10:05:32;;;;;;;;;;;-0.60;99.90;;;;;;7343858;19;109457;-70
2022/12/14 10:08:00;;;;;;;;;;;-0.60;99.90;;;;;;7349962;19;110388;-71
2022/12/14 10:10:47;;;;;;;;;;;-0.60;99.90;;;;;;7344475;19;109189;-71
2022/12/14 10:13:14;;;;;;;;;;;-0.60;99.90;;;;;;7342345;19;109773;-71
2022/12/14 10:16:03;;;;;;;;;;;-0.50;99.90;;;;;;7345612;19;109195;-67
2022/12/14 10:18:30;;;;;;;;;;;-0.50;99.90;;;;;;7342698;19;109255;-70
2022/12/14 10:21:18;;;;;;;;;;;-0.40;99.90;;;;;;7340681;19;111499;-68
2022/12/14 10:23:50;;;;;;;;;;;-0.40;99.90;;;;;;7344303;19;108632;-70
2022/12/14 10:26:18;;;;;;;;;;;-0.40;99.90;;;;;;7343449;19;109599;-70
2022/12/14 10:28:49;;;;;;;;;;;-0.40;99.90;;;;;;7342280;19;111050;-70
2022/12/14 10:31:43;;;;;;;;;;;-0.30;99.90;;;;;;7347126;19;108666;-70
2022/12/14 10:34:21;;;;;;;;;;;-0.30;99.90;;;;;;7341814;19;109336;-70
2022/12/14 10:37:03;;;;;;;;;;;-0.20;99.90;;;;;;7343838;19;108248;-70
2022/12/14 10:39:50;;;;;;;;;;;-0.20;99.90;;;;;;7340387;19;109142;-70
2022/12/14 10:42:26;;;;;;;;;;;0.00;99.90;;;;;;7335857;19;113048;-70
2022/12/14 10:44:59;;;;;;;;;;;0.10;99.90;;;;;;7326746;19;108339;-70
2022/12/14 10:47:48;;;;;;;;;;;0.30;99.90;;;;;;7342169;19;109137;-70
2022/12/14 10:50:24;;;;;;;;;;;0.50;99.90;;;;;;7340575;19;110579;-70
2022/12/14 10:52:52;;;;;;;;;;;0.70;99.90;;;;;;7343434;19;108476;-70
2022/12/14 10:55:27;;;;;;;;;;;0.80;99.90;;;;;;7346756;19;108766;-70
2022/12/14 10:57:54;;;;;;;;;;;0.90;99.90;;;;;;7342900;19;108788;-70
2022/12/14 11:00:21;;;;;;;;;;;1.00;99.90;;;;;;7341416;19;108728;-70
2022/12/14 11:02:53;;;;;;;;;;;1.10;99.90;;;;;;7339934;19;110141;-70
2022/12/14 11:05:32;;;;;;;;;;;1.10;99.90;;;;;;7341085;19;108615;-70
2022/12/14 11:08:06;;;;;;;;;;;1.20;99.90;;;;;;7341280;19;108434;-70
2022/12/14 11:10:40;;;;;;;;;;;1.20;99.90;;;;;;7343195;19;110990;-70
2022/12/14 11:13:16;;;;;;;;;;;1.20;99.90;;;;;;7341789;19;108927;-70
2022/12/14 11:15:44;;;;;;;;;;;1.30;99.90;;;;;;7347624;19;109201;-70
2022/12/14 11:18:11;;;;;;;;;;;1.40;99.90;;;;;;7341032;19;109368;-72
2022/12/14 11:20:52;;;;;;;;;;;1.50;99.90;;;;;;7342366;19;108965;-68
2022/12/14 11:23:26;;;;;;;;;;;1.50;99.90;;;;;;7340468;19;109355;-70
2022/12/14 11:25:55;;;;;;;;;;;1.70;99.90;;;;;;7339844;19;108612;-70
2022/12/14 11:28:41;;;;;;;;;;;1.70;99.90;;;;;;7338678;19;109229;-70
2022/12/14 11:31:21;;;;;;;;;;;1.80;99.90;;;;;;7339104;19;110196;-70
2022/12/14 11:33:53;;;;;;;;;;;1.90;99.90;;;;;;7341541;19;108656;-70
2022/12/14 11:36:28;;;;;;;;;;;1.80;99.90;;;;;;7339298;19;112321;-70
2022/12/14 11:39:18;;;;;;;;;;;1.70;99.90;;;;;;7344969;19;110290;-70
2022/12/14 11:41:46;;;;;;;;;;;1.70;99.90;;;;;;7339698;19;109136;-68
2022/12/14 11:44:42;;;;;;;;;;;1.70;99.90;;;;;;7337695;19;113640;-68
2022/12/14 11:47:14;;;;;;;;;;;1.80;99.90;;;;;;7338438;19;108792;-70
2022/12/14 11:49:43;;;;;;;;;;;1.90;99.90;;;;;;7342412;19;109196;-69
2022/12/14 11:52:17;;;;;;;;;;;2.10;99.90;;;;;;7339392;19;110345;-71
2022/12/14 11:55:05;;;;;;;;;;;2.30;99.90;;;;;;7341455;19;109127;-70
2022/12/14 11:57:50;;;;;;;;;;;2.40;99.90;;;;;;7339994;19;109628;-70
2022/12/14 12:00:17;;;;;;;;;;;2.50;99.90;;;;;;7340054;19;109123;-69
2022/12/14 12:02:53;;;;;;;;;;;2.60;99.90;;;;;;7347991;19;108583;-70
2022/12/14 12:05:21;;;;;;;;;;;2.60;99.90;;;;;;7336319;19;110387;-68
2022/12/14 12:07:48;;;;;;;;;;;2.70;99.90;;;;;;7340356;19;108635;-70
2022/12/14 12:10:21;;;;;;;;;;;2.80;99.90;;;;;;7340209;19;109101;-68
2022/12/14 12:12:52;;;;;;;;;;;2.70;99.90;;;;;;7340799;19;109246;-68
2022/12/14 12:15:22;;;;;;;;;;;2.70;99.90;;;;;;7339206;19;108613;-70
2022/12/14 12:17:52;;;;;;;;;;;2.80;99.90;;;;;;7340595;19;109536;-70
2022/12/14 12:20:22;;;;;;;;;;;2.90;99.90;;;;;;7336934;19;113219;-70
2022/12/14 12:22:52;;;;;;;;;;;3.00;99.90;;;;;;7338835;19;108370;-70
2022/12/14 12:25:22;;;;;;;;;;;2.80;99.90;;;;;;7343734;19;109299;-70
2022/12/14 12:27:59;;;;;;;;;;;2.70;99.90;;;;;;7338228;19;108771;-70
2022/12/14 12:30:28;;;;;;;;;;;2.70;99.90;;;;;;7338167;19;109355;-70
2022/12/14 12:32:58;;;;;;;;;;;2.80;99.90;;;;;;7338615;19;109793;-70
2022/12/14 12:35:28;;;;;;;;;;;2.90;99.90;;;;;;7338226;19;108515;-70
2022/12/14 12:37:57;;;;;;;;;;;3.10;99.90;;;;;;7339266;19;108406;-67
2022/12/14 12:40:27;;;;;;;;;;;3.30;99.90;;;;;;7339563;19;109917;-68
2022/12/14 12:42:57;;;;;;;;;;;3.40;99.90;;;;;;7338582;19;108944;-67
2022/12/14 12:45:30;;;;;;;;;;;3.30;99.90;;;;;;7336555;19;109578;-69
2022/12/14 12:48:11;;;;;;;;;;;3.40;99.90;;;;;;7341891;19;109481;-71
2022/12/14 12:50:41;;;;;;;;;;;3.50;99.90;;;;;;7334590;19;109372;-71
2022/12/14 12:53:13;;;;;;;;;;;3.40;99.90;;;;;;7337054;19;109122;-68
2022/12/14 12:55:46;;;;;;;;;;;3.50;99.90;;;;;;7338191;19;109051;-68
2022/12/14 12:58:39;;;;;;;;;;;3.70;99.90;;;;;;7337061;19;109362;-68
2022/12/14 13:01:14;;;;;;;;;;;3.80;99.90;;;;;;7338810;19;110097;-70
2022/12/14 13:03:44;;;;;;;;;;;3.90;99.90;;;;;;7337033;19;108719;-68
2022/12/14 13:06:14;;;;;;;;;;;3.90;99.90;;;;;;7336441;19;109146;-71
2022/12/14 13:08:42;;;;;;;;;;;3.90;99.90;;;;;;7337455;19;109810;-70
2022/12/14 13:11:15;;;;;;;;;;;3.90;99.90;;;;;;7341861;19;108674;-71
2022/12/14 13:13:54;;;;;;;;;;;4.10;99.90;;;;;;7338809;19;110317;-68
2022/12/14 13:16:24;;;;;;;;;;;4.30;99.90;;;;;;7335685;19;108423;-68
2022/12/14 13:18:56;;;;;;;;;;;4.30;99.90;;;;;;7337806;19;109225;-68
2022/12/14 13:21:48;;;;;;;;;;;4.30;99.90;;;;;;7337704;19;111757;-68
2022/12/14 13:24:17;;;;;;;;;;;4.20;99.90;;;;;;7338088;19;108380;-71
2022/12/14 13:26:46;;;;;;;;;;;4.20;99.90;;;;;;7337944;19;110537;-68
2022/12/14 13:29:47;;;;;;;;;;;4.30;99.90;;;;;;7335063;19;109179;-71
2022/12/14 13:32:33;;;;;;;;;;;4.40;99.90;;;;;;7339168;19;108966;-69
2022/12/14 13:35:21;;;;;;;;;;;4.60;99.90;;;;;;7335361;19;113180;-68
2022/12/14 13:37:51;;;;;;;;;;;4.60;99.90;;;;;;7333454;19;109621;-68
2022/12/14 13:40:27;;;;;;;;;;;4.60;99.90;;;;;;7335429;19;114765;-68
2022/12/14 13:43:04;;;;;;;;;;;4.70;99.90;;;;;;7336535;19;110259;-70
2022/12/14 13:45:36;;;;;;;;;;;4.70;99.90;;;;;;7336730;19;108750;-70
2022/12/14 13:48:06;;;;;;;;;;;4.70;99.90;;;;;;7335390;19;114622;-70
2022/12/14 13:50:40;;;;;;;;;;;4.80;99.90;;;;;;7337724;19;115529;-71
2022/12/14 13:53:28;;;;;;;;;;;4.80;99.90;;;;;;7334083;19;108545;-69
2022/12/14 13:55:58;;;;;;;;;;;4.90;99.90;;;;;;7338530;19;109116;-71
2022/12/14 13:58:36;;;;;;;;;;;5.10;99.90;;;;;;7331761;19;108490;-71
2022/12/14 14:01:03;;;;;;;;;;;5.40;99.90;;;;;;7334191;19;110227;-71
2022/12/14 14:03:32;;;;;;;;;;;5.60;99.90;;;;;;7337400;19;111454;-71
2022/12/14 14:06:18;;;;;;;;;;;5.60;99.90;;;;;;7339620;19;109473;-71
2022/12/14 14:08:47;;;;;;;;;;;5.70;99.90;;;;;;7342764;19;109080;-72
2022/12/14 14:11:21;;;;;;;;;;;5.80;99.90;;;;;;7339105;19;113202;-72
2022/12/14 14:14:19;;;;;;;;;;;5.90;99.90;;;;;;7351213;19;108469;-90
2022/12/14 14:16:48;;;;;;;;;;;5.90;99.90;;;;;;7344530;19;108920;-88
2022/12/14 14:19:25;;;;;;;;;;;5.70;99.90;;;;;;7346790;19;110496;-70
2022/12/14 14:22:14;;;;;;;;;;;5.50;99.90;;;;;;7343158;19;108774;-70
2022/12/14 14:24:56;;;;;;;;;;;5.30;99.90;;;;;;7343331;19;109625;-70
2022/12/14 14:27:28;;;;;;;;;;;5.10;99.90;;;;;;7342801;19;108335;-70
2022/12/14 14:29:56;;;;;;;;;;;5.00;99.90;;;;;;7342431;19;108836;-70
2022/12/14 14:32:29;;;;;;;;;;;4.80;99.90;;;;;;7341400;19;110269;-70
2022/12/14 14:34:56;;;;;;;;;;;4.70;99.90;;;;;;7343649;19;108431;-70
2022/12/14 14:37:24;;;;;;;;;;;4.60;99.90;;;;;;7341223;19;109073;-70
2022/12/14 14:39:57;;;;;;;;;;;4.50;99.90;;;;;;7343668;19;109551;-70
2022/12/14 14:42:58;;;;;;;;;;;4.40;99.90;;;;;;7349992;19;109492;-70
2022/12/14 14:45:25;;;;;;;;;;;4.30;99.90;;;;;;7338083;19;110316;-70
2022/12/14 14:47:57;;;;;;;;;;;4.20;99.90;;;;;;7341953;19;108586;-70